Time;durP1;ratioP1;P1;durP2;ratioP2;P2;SDS_P1;SDS_P2;PMS_P1;PMS_P2;Temp;Humidity;BMP_temperature;BMP_pressure;BME280_temperature;BME280_humidity;BME280_pressure;Samples;Min_cycle;Max_cycle;Signal;HPM_P1;HPM_P2
2022/11/17 00:01:18;;;;;;;29.98;15.68;;;8.80;99.90;;;;;;5090800;28;20085;-64
2022/11/17 00:03:44;;;;;;;34.53;17.65;;;8.80;99.90;;;;;;5088794;28;20047;-64
2022/11/17 00:06:10;;;;;;;29.50;16.27;;;8.80;99.90;;;;;;5088541;28;20032;-63
2022/11/17 00:08:35;;;;;;;31.15;17.15;;;8.90;99.90;;;;;;5090168;28;20036;-64
2022/11/17 00:11:02;;;;;;;31.35;17.52;;;8.80;99.90;;;;;;5089055;28;20043;-63
2022/11/17 00:16:14;;;;;;;28.30;15.00;;;8.80;99.90;;;;;;5085179;28;20048;-64
2022/11/17 00:21:25;;;;;;;28.67;15.93;;;8.90;99.90;;;;;;5082992;28;20044;-64
2022/11/17 00:23:52;;;;;;;31.35;16.67;;;8.90;99.90;;;;;;5089289;28;20032;-63
2022/11/17 00:26:20;;;;;;;28.40;16.33;;;8.90;99.90;;;;;;5089119;28;20036;-64
2022/11/17 00:28:46;;;;;;;26.13;14.73;;;8.90;99.90;;;;;;5090197;28;20509;-64
2022/11/17 00:34:03;;;;;;;27.23;15.45;;;8.90;99.90;;;;;;5085992;28;20650;-63
2022/11/17 00:36:29;;;;;;;28.33;15.20;;;8.90;99.90;;;;;;5071526;28;20126;-64
2022/11/17 00:38:55;;;;;;;25.98;15.38;;;8.90;99.90;;;;;;5087556;28;20078;-64
2022/11/17 00:41:20;;;;;;;26.88;14.93;;;8.90;99.90;;;;;;5083034;28;20040;-63
2022/11/17 00:43:46;;;;;;;28.30;15.80;;;8.90;99.90;;;;;;5089633;28;20028;-63
2022/11/17 00:46:11;;;;;;;26.77;15.05;;;8.90;99.90;;;;;;5089341;28;20109;-63
2022/11/17 00:48:37;;;;;;;25.10;14.32;;;8.90;99.90;;;;;;5089722;28;20045;-64
2022/11/17 00:51:03;;;;;;;23.85;14.77;;;8.90;99.90;;;;;;5092289;28;20370;-64
2022/11/17 00:53:29;;;;;;;30.92;16.67;;;8.90;99.90;;;;;;5092323;28;20510;-64
2022/11/17 00:55:55;;;;;;;26.98;15.60;;;8.90;99.90;;;;;;5092817;28;20039;-64
2022/11/17 00:58:20;;;;;;;26.17;14.43;;;8.90;99.90;;;;;;5094017;28;20451;-64
2022/11/17 01:00:48;;;;;;;24.48;14.48;;;8.90;99.90;;;;;;5092385;28;20131;-64
2022/11/17 01:03:13;;;;;;;23.77;14.70;;;8.90;99.90;;;;;;5087235;28;20499;-64
2022/11/17 01:05:39;;;;;;;22.45;13.80;;;8.90;99.90;;;;;;5086597;28;20028;-63
2022/11/17 01:08:04;;;;;;;21.85;13.90;;;8.90;99.90;;;;;;5093758;28;20378;-64
2022/11/17 01:10:30;;;;;;;26.48;13.60;;;8.90;99.90;;;;;;5093078;28;20040;-64
2022/11/17 01:12:56;;;;;;;20.30;12.80;;;8.90;99.90;;;;;;5071925;28;20077;-64
2022/11/17 01:15:21;;;;;;;23.88;12.82;;;8.90;99.90;;;;;;5073897;28;20082;-64
2022/11/17 01:17:47;;;;;;;21.48;12.80;;;8.90;99.90;;;;;;5087713;28;20085;-64
2022/11/17 01:20:13;;;;;;;19.65;12.55;;;8.90;99.90;;;;;;5091448;28;20040;-64
2022/11/17 01:22:38;;;;;;;20.30;12.95;;;8.90;99.90;;;;;;5074201;28;20043;-64
2022/11/17 01:25:04;;;;;;;20.17;12.85;;;8.90;99.90;;;;;;5071243;28;20036;-63
2022/11/17 01:27:30;;;;;;;24.80;13.32;;;8.90;99.90;;;;;;5071357;28;20470;-64
2022/11/17 01:29:56;;;;;;;22.52;13.55;;;8.90;99.90;;;;;;5091574;28;20044;-64
2022/11/17 01:32:21;;;;;;;19.80;12.50;;;8.90;99.90;;;;;;5090964;28;20051;-65
2022/11/17 01:34:47;;;;;;;22.33;13.75;;;8.90;99.90;;;;;;5091740;28;20519;-64
2022/11/17 01:37:18;;;;;;;18.77;12.43;;;8.90;99.90;;;;;;5091766;28;20040;-64
2022/11/17 01:39:44;;;;;;;;;;;8.80;99.90;;;;;;5089617;28;20032;-63
2022/11/17 01:42:27;;;;;;;20.65;12.90;;;8.90;99.90;;;;;;5091984;28;20313;-64
2022/11/17 01:44:55;;;;;;;17.83;12.00;;;8.90;99.90;;;;;;5088869;28;20028;-64
2022/11/17 01:47:38;;;;;;;21.48;13.13;;;8.80;99.90;;;;;;5090872;28;20063;-64
2022/11/17 01:50:35;;;;;;;17.35;11.07;;;8.90;99.90;;;;;;5065203;28;20047;-64
2022/11/17 01:53:06;;;;;;;24.23;13.35;;;8.90;99.90;;;;;;5084951;28;20036;-64
2022/11/17 01:55:42;;;;;;;19.42;12.05;;;8.90;99.90;;;;;;5088278;28;20032;-64
2022/11/17 01:58:14;;;;;;;19.42;12.60;;;8.90;99.90;;;;;;5083488;28;20067;-64
2022/11/17 02:00:40;;;;;;;20.92;12.18;;;8.80;99.90;;;;;;5090355;28;20040;-65
2022/11/17 02:03:06;;;;;;;22.05;12.55;;;8.90;99.90;;;;;;5077859;28;20038;-65
2022/11/17 02:05:40;;;;;;;22.58;12.23;;;8.90;99.90;;;;;;5089180;28;20046;-64
2022/11/17 02:08:06;;;;;;;19.60;11.90;;;8.90;99.90;;;;;;5092852;28;20050;-64
2022/11/17 02:10:34;;;;;;;20.70;12.45;;;8.90;99.90;;;;;;5089566;28;20557;-64
2022/11/17 02:13:00;;;;;;;19.85;12.60;;;8.90;99.90;;;;;;5091201;28;20067;-65
2022/11/17 02:15:27;;;;;;;20.73;12.48;;;8.80;99.90;;;;;;5073552;28;20072;-65
2022/11/17 02:17:53;;;;;;;20.17;12.85;;;8.80;99.90;;;;;;5066220;28;20093;-64
2022/11/17 02:20:54;;;;;;;21.33;12.80;;;8.80;99.90;;;;;;5091946;28;20489;-64
2022/11/17 02:23:50;;;;;;;21.02;11.98;;;8.80;99.90;;;;;;5024185;28;20052;-63
2022/11/17 02:26:36;;;;;;;22.52;12.48;;;8.80;99.90;;;;;;5090980;28;20491;-63
2022/11/17 02:29:29;;;;;;;19.02;12.20;;;8.80;99.90;;;;;;5071495;28;20493;-63
2022/11/17 02:32:14;;;;;;;20.30;11.40;;;8.80;99.90;;;;;;5066692;28;20042;-63
2022/11/17 02:34:53;;;;;;;20.88;12.57;;;8.80;99.90;;;;;;5089540;28;20037;-64
2022/11/17 02:37:37;;;;;;;24.58;12.90;;;8.80;99.90;;;;;;5085866;28;20066;-63
2022/11/17 02:40:23;;;;;;;24.73;12.45;;;8.80;99.90;;;;;;5077818;28;20036;-63
2022/11/17 02:46:10;;;;;;;20.88;12.05;;;8.70;99.90;;;;;;5090331;28;20051;-64
2022/11/17 02:48:39;;;;;;;19.95;11.75;;;8.70;99.90;;;;;;5080399;28;20040;-64
2022/11/17 02:51:11;;;;;;;20.00;12.13;;;8.70;99.90;;;;;;5070576;28;20375;-63
2022/11/17 02:53:38;;;;;;;21.80;11.82;;;8.70;99.90;;;;;;5082047;28;20036;-64
2022/11/17 02:56:04;;;;;;;21.52;12.27;;;8.70;99.90;;;;;;5091278;28;20378;-64
2022/11/17 02:58:30;;;;;;;21.35;12.38;;;8.70;99.90;;;;;;5086146;28;20058;-64
2022/11/17 03:00:55;;;;;;;23.92;13.10;;;8.60;99.90;;;;;;5091599;28;20027;-64
2022/11/17 03:03:39;;;;;;;21.02;12.98;;;8.60;99.90;;;;;;5087761;28;20040;-64
2022/11/17 03:06:34;;;;;;;19.55;11.35;;;8.60;99.90;;;;;;5080461;28;20123;-64
2022/11/17 03:09:19;;;;;;;23.58;12.57;;;8.60;99.90;;;;;;5085435;28;20047;-64
2022/11/17 03:11:51;;;;;;;20.48;11.77;;;8.60;99.90;;;;;;5087873;28;20127;-64
2022/11/17 03:14:28;;;;;;;20.30;12.05;;;8.60;99.90;;;;;;5091599;28;20059;-64
2022/11/17 03:17:00;;;;;;;19.67;11.90;;;8.60;99.90;;;;;;5089607;28;20100;-64
2022/11/17 03:19:25;;;;;;;19.85;12.13;;;8.50;99.90;;;;;;5090142;28;20040;-64
2022/11/17 03:22:23;;;;;;;20.48;11.68;;;8.50;99.90;;;;;;5090338;28;20612;-64
2022/11/17 03:25:00;;;;;;;20.75;12.50;;;8.50;99.90;;;;;;5077319;28;20048;-65
2022/11/17 03:27:36;;;;;;;19.48;10.90;;;8.60;99.90;;;;;;5087731;28;20396;-65
2022/11/17 03:30:06;;;;;;;18.92;11.55;;;8.50;99.90;;;;;;5084389;28;20042;-65
2022/11/17 03:32:37;;;;;;;20.38;11.95;;;8.50;99.90;;;;;;5087779;28;20043;-65
2022/11/17 03:35:10;;;;;;;16.95;11.43;;;8.50;99.90;;;;;;5088973;28;20058;-65
2022/11/17 03:37:40;;;;;;;18.25;9.95;;;8.50;99.90;;;;;;5088786;28;20040;-65
2022/11/17 03:40:12;;;;;;;17.20;10.27;;;8.50;99.90;;;;;;5087375;28;20375;-65
2022/11/17 03:42:42;;;;;;;21.52;11.50;;;8.40;99.90;;;;;;5070448;28;20040;-65
2022/11/17 03:45:25;;;;;;;15.00;10.50;;;8.40;99.90;;;;;;5088395;28;20067;-64
2022/11/17 03:47:57;;;;;;;17.33;10.25;;;8.40;99.90;;;;;;5090486;28;20063;-64
2022/11/17 03:50:35;;;;;;;17.00;11.27;;;8.40;99.90;;;;;;5088211;28;20040;-64
2022/11/17 03:53:03;;;;;;;17.38;10.88;;;8.40;99.90;;;;;;5063652;28;20040;-65
2022/11/17 03:55:56;;;;;;;13.80;8.68;;;8.40;99.90;;;;;;5085591;28;20490;-65
2022/11/17 03:58:26;;;;;;;14.15;9.68;;;8.40;99.90;;;;;;5089263;28;20051;-65
2022/11/17 04:00:53;;;;;;;15.43;10.20;;;8.40;99.90;;;;;;5086872;28;20039;-65
2022/11/17 04:03:22;;;;;;;15.95;10.38;;;8.40;99.90;;;;;;5091926;28;20282;-65
2022/11/17 04:05:47;;;;;;;15.48;9.98;;;8.40;99.90;;;;;;5089145;28;20066;-62
2022/11/17 04:08:13;;;;;;;16.02;9.85;;;8.40;99.90;;;;;;5090222;28;20343;-63
2022/11/17 04:16:07;;;;;;;16.38;10.13;;;8.30;99.90;;;;;;5088932;28;20036;-64
2022/11/17 04:18:33;;;;;;;13.98;9.55;;;8.40;99.90;;;;;;5090224;28;20032;-64
2022/11/17 04:20:58;;;;;;;15.00;10.07;;;8.30;99.90;;;;;;5071822;28;20035;-63
2022/11/17 04:23:25;;;;;;;14.63;9.00;;;8.40;99.90;;;;;;5100100;28;20098;-63
2022/11/17 04:28:40;;;;;;;11.32;8.10;;;8.40;99.90;;;;;;5093964;28;20119;-62
2022/11/17 04:31:15;;;;;;;13.38;9.23;;;8.40;99.90;;;;;;5075070;28;20028;-63
2022/11/17 04:33:45;;;;;;;15.57;9.13;;;8.40;99.90;;;;;;5090055;28;20040;-64
2022/11/17 04:36:13;;;;;;;14.20;8.98;;;8.30;99.90;;;;;;5092986;28;20060;-64
2022/11/17 04:38:44;;;;;;;12.30;8.95;;;8.30;99.90;;;;;;5093014;28;20451;-64
2022/11/17 04:43:56;;;;;;;16.35;9.50;;;8.30;99.90;;;;;;5087735;28;19942;-64
2022/11/17 04:46:23;;;;;;;15.90;8.95;;;8.30;99.90;;;;;;5073059;28;20032;-64
2022/11/17 04:48:50;;;;;;;12.88;9.15;;;8.30;99.90;;;;;;5093771;28;20099;-64
2022/11/17 04:51:16;;;;;;;12.48;8.35;;;8.30;99.90;;;;;;5071389;28;20472;-64
2022/11/17 04:53:42;;;;;;;13.38;8.80;;;8.30;99.90;;;;;;5091848;28;20063;-64
2022/11/17 04:56:08;;;;;;;13.85;8.13;;;8.30;99.90;;;;;;5073742;28;20046;-64
2022/11/17 04:58:34;;;;;;;13.80;8.57;;;8.20;99.90;;;;;;5063543;28;20032;-64
2022/11/17 05:01:12;;;;;;;13.88;7.53;;;8.20;99.90;;;;;;5073063;28;20089;-65
2022/11/17 05:04:02;;;;;;;11.43;7.80;;;8.20;99.90;;;;;;5089324;28;20035;-64
2022/11/17 05:06:34;;;;;;;11.02;7.30;;;8.20;99.90;;;;;;5074380;28;20512;-64
2022/11/17 05:09:26;;;;;;;13.60;8.05;;;8.20;99.90;;;;;;5092688;28;20039;-64
2022/11/17 05:14:36;;;;;;;11.68;7.38;;;8.10;99.90;;;;;;5089743;28;20050;-64
2022/11/17 05:17:05;;;;;;;9.75;6.13;;;8.10;99.90;;;;;;5093617;28;20036;-64
2022/11/17 05:19:33;;;;;;;9.43;6.72;;;8.10;99.90;;;;;;5090903;28;20047;-64
2022/11/17 05:21:59;;;;;;;11.35;7.65;;;8.10;99.90;;;;;;5068473;28;20039;-64
2022/11/17 05:24:29;;;;;;;10.05;6.82;;;8.00;99.90;;;;;;5092952;28;20485;-64
2022/11/17 05:26:55;;;;;;;11.13;7.03;;;8.00;99.90;;;;;;5088551;28;20040;-64
2022/11/17 05:29:21;;;;;;;10.80;7.80;;;8.00;99.90;;;;;;5071417;28;20063;-64
2022/11/17 05:31:47;;;;;;;11.98;7.82;;;8.00;99.90;;;;;;5071057;28;20043;-64
2022/11/17 05:34:16;;;;;;;10.85;7.43;;;8.00;99.90;;;;;;5073846;28;20090;-64
2022/11/17 05:36:42;;;;;;;8.27;6.68;;;7.90;99.90;;;;;;5072196;28;20044;-65
2022/11/17 05:39:08;;;;;;;10.43;7.13;;;7.90;99.90;;;;;;5082716;28;20036;-64
2022/11/17 05:41:35;;;;;;;8.93;6.72;;;7.90;99.90;;;;;;5087971;28;20192;-64
2022/11/17 05:44:01;;;;;;;10.38;6.93;;;7.90;99.90;;;;;;5090563;28;20375;-64
2022/11/17 05:46:27;;;;;;;11.65;7.72;;;7.90;99.90;;;;;;5091057;28;20047;-65
2022/11/17 05:48:52;;;;;;;11.52;7.18;;;7.80;99.90;;;;;;5091858;28;20032;-65
2022/11/17 05:51:21;;;;;;;9.07;7.50;;;7.80;99.90;;;;;;5072097;28;20040;-65
2022/11/17 05:53:47;;;;;;;12.07;7.78;;;7.80;99.90;;;;;;5088516;28;20497;-65
2022/11/17 05:56:18;;;;;;;11.00;7.25;;;7.80;99.90;;;;;;5075292;28;20063;-65
2022/11/17 05:58:48;;;;;;;11.93;7.85;;;7.80;99.90;;;;;;5072005;28;20042;-65
2022/11/17 06:01:15;;;;;;;10.32;6.75;;;7.80;99.90;;;;;;5069507;28;20070;-64
2022/11/17 06:03:45;;;;;;;9.73;6.93;;;7.70;99.90;;;;;;5090766;28;20066;-64
2022/11/17 06:06:11;;;;;;;10.35;6.93;;;7.70;99.90;;;;;;5087687;28;20122;-65
2022/11/17 06:08:37;;;;;;;10.10;6.70;;;7.70;99.90;;;;;;5092004;28;20165;-64
2022/11/17 06:11:02;;;;;;;9.90;6.35;;;7.80;99.90;;;;;;5085074;28;20075;-64
2022/11/17 06:13:28;;;;;;;10.30;6.70;;;7.70;99.90;;;;;;5064939;28;20067;-63
2022/11/17 06:15:57;;;;;;;8.68;6.65;;;7.70;99.90;;;;;;5063299;28;20095;-63
2022/11/17 06:18:44;;;;;;;8.63;6.13;;;7.70;99.90;;;;;;5086123;28;20063;-64
2022/11/17 06:21:12;;;;;;;7.25;5.72;;;7.70;99.90;;;;;;5086088;28;20102;-63
2022/11/17 06:23:38;;;;;;;7.47;5.57;;;7.60;99.90;;;;;;5087969;28;20493;-63
2022/11/17 06:26:07;;;;;;;8.80;6.00;;;7.60;99.90;;;;;;5091390;28;20051;-64
2022/11/17 06:28:35;;;;;;;10.80;7.00;;;7.60;99.90;;;;;;5089311;28;20037;-63
2022/11/17 06:31:01;;;;;;;8.93;6.13;;;7.60;99.90;;;;;;5072225;28;20378;-63
2022/11/17 06:33:29;;;;;;;8.35;6.38;;;7.60;99.90;;;;;;5090094;28;20032;-64
2022/11/17 06:35:55;;;;;;;8.68;6.38;;;7.60;99.90;;;;;;5090139;28;20034;-63
2022/11/17 06:38:21;;;;;;;9.52;6.20;;;7.60;99.90;;;;;;5091691;28;20447;-63
2022/11/17 06:40:47;;;;;;;8.02;5.30;;;7.60;99.90;;;;;;5086857;28;20032;-63
2022/11/17 06:43:12;;;;;;;8.15;6.35;;;7.50;99.90;;;;;;5073229;28;20047;-64
2022/11/17 06:45:40;;;;;;;9.70;6.00;;;7.60;99.90;;;;;;5053559;28;20489;-63
2022/11/17 06:48:07;;;;;;;8.27;5.70;;;7.50;99.90;;;;;;5081794;28;20039;-63
2022/11/17 06:50:33;;;;;;;9.73;5.72;;;7.50;99.90;;;;;;5091651;28;20040;-63
2022/11/17 06:53:06;;;;;;;9.27;6.18;;;7.50;99.90;;;;;;5073591;28;20052;-63
2022/11/17 06:55:33;;;;;;;7.60;5.63;;;7.50;99.90;;;;;;5087860;28;20032;-63
2022/11/17 06:58:00;;;;;;;8.93;6.47;;;7.60;99.90;;;;;;5086338;28;20047;-63
2022/11/17 07:00:27;;;;;;;8.70;6.10;;;7.60;99.90;;;;;;5072444;28;20044;-64
2022/11/17 07:02:58;;;;;;;7.53;5.90;;;7.50;99.90;;;;;;5064317;28;20500;-63
2022/11/17 07:05:24;;;;;;;7.93;5.97;;;7.60;99.90;;;;;;5072685;28;20405;-63
2022/11/17 07:07:49;;;;;;;7.35;6.28;;;7.50;99.90;;;;;;5069087;28;20040;-63
2022/11/17 07:10:15;;;;;;;7.82;5.65;;;7.50;99.90;;;;;;5083924;28;20097;-63
2022/11/17 07:12:41;;;;;;;7.57;5.72;;;7.50;99.90;;;;;;5087634;28;20040;-63
2022/11/17 07:15:07;;;;;;;7.75;6.05;;;7.50;99.90;;;;;;5081274;28;20036;-63
2022/11/17 07:17:32;;;;;;;7.53;5.28;;;7.50;99.90;;;;;;5090313;28;20075;-63
2022/11/17 07:19:58;;;;;;;6.78;5.75;;;7.50;99.90;;;;;;5089524;28;20405;-63
2022/11/17 07:22:23;;;;;;;6.68;5.43;;;7.50;99.90;;;;;;5089002;28;20496;-63
2022/11/17 07:24:49;;;;;;;8.38;5.72;;;7.60;99.90;;;;;;5087067;28;20040;-63
2022/11/17 07:27:14;;;;;;;7.55;5.90;;;7.60;99.90;;;;;;5086426;28;20032;-63
2022/11/17 07:29:40;;;;;;;9.00;5.70;;;7.50;99.90;;;;;;5089198;28;20028;-62
2022/11/17 07:32:06;;;;;;;9.50;5.85;;;7.50;99.90;;;;;;5082884;28;20075;-62
2022/11/17 07:34:32;;;;;;;8.15;5.40;;;7.50;99.90;;;;;;5089405;28;20138;-62
2022/11/17 07:36:58;;;;;;;7.32;5.65;;;7.50;99.90;;;;;;5090657;28;20548;-63
2022/11/17 07:39:23;;;;;;;7.15;5.20;;;7.50;99.90;;;;;;5078388;28;20068;-62
2022/11/17 07:41:49;;;;;;;7.55;5.97;;;7.50;99.90;;;;;;5072975;28;20031;-63
2022/11/17 07:44:14;;;;;;;8.05;5.90;;;7.50;99.90;;;;;;5082332;28;20036;-63
2022/11/17 07:46:40;;;;;;;6.88;5.32;;;7.50;99.90;;;;;;5067537;28;20375;-63
2022/11/17 07:49:05;;;;;;;8.35;5.75;;;7.50;99.90;;;;;;5087698;28;20032;-63
2022/11/17 07:51:31;;;;;;;9.95;6.10;;;7.50;99.90;;;;;;5088642;28;20024;-63
2022/11/17 07:53:56;;;;;;;7.88;5.68;;;7.60;99.90;;;;;;5088561;28;20504;-63
2022/11/17 07:56:22;;;;;;;7.63;5.50;;;7.50;99.90;;;;;;5068837;28;20038;-63
2022/11/17 07:58:48;;;;;;;6.57;5.13;;;7.50;99.90;;;;;;5089233;28;20126;-63
2022/11/17 08:01:14;;;;;;;8.55;5.68;;;7.50;99.90;;;;;;5092291;28;20161;-63
2022/11/17 08:03:40;;;;;;;8.90;6.13;;;7.50;99.90;;;;;;5092747;28;20032;-63
2022/11/17 08:06:08;;;;;;;9.55;6.10;;;7.50;99.90;;;;;;5088619;28;20032;-64
2022/11/17 08:08:34;;;;;;;8.85;6.60;;;7.50;99.90;;;;;;5080832;28;20102;-64
2022/11/17 08:11:08;;;;;;;8.77;6.82;;;7.50;99.90;;;;;;5090729;28;20032;-64
2022/11/17 08:13:34;;;;;;;7.70;6.13;;;7.50;99.90;;;;;;5092252;28;20036;-64
2022/11/17 08:16:00;;;;;;;8.68;6.95;;;7.50;99.90;;;;;;5086522;28;20066;-64
2022/11/17 08:18:26;;;;;;;8.18;6.15;;;7.50;99.90;;;;;;5094027;28;20489;-64
2022/11/17 08:20:58;;;;;;;9.43;6.88;;;7.50;99.90;;;;;;5088165;28;20058;-64
2022/11/17 08:23:24;;;;;;;8.70;6.70;;;7.50;99.90;;;;;;5087621;28;20559;-64
2022/11/17 08:25:50;;;;;;;11.35;7.10;;;7.50;99.90;;;;;;5067220;28;20036;-64
2022/11/17 08:28:15;;;;;;;9.43;6.72;;;7.50;99.90;;;;;;5087795;28;20028;-64
2022/11/17 08:30:43;;;;;;;10.52;7.18;;;7.50;99.90;;;;;;5091277;28;20060;-64
2022/11/17 08:33:09;;;;;;;10.85;6.32;;;7.50;99.90;;;;;;5067780;28;20489;-64
2022/11/17 08:35:34;;;;;;;10.00;6.82;;;7.50;99.90;;;;;;5090740;28;20037;-64
2022/11/17 08:38:00;;;;;;;9.23;6.72;;;7.50;99.90;;;;;;5088116;28;20047;-64
2022/11/17 08:40:26;;;;;;;10.65;6.57;;;7.50;99.90;;;;;;5082034;28;20040;-64
2022/11/17 08:42:53;;;;;;;8.98;6.53;;;7.50;99.90;;;;;;5084316;28;20162;-63
2022/11/17 08:45:19;;;;;;;8.88;6.80;;;7.50;99.90;;;;;;5075533;28;20040;-64
2022/11/17 08:47:45;;;;;;;9.32;6.43;;;7.50;99.90;;;;;;5073122;28;20374;-64
2022/11/17 08:50:10;;;;;;;7.80;6.05;;;7.50;99.90;;;;;;5092856;28;20781;-63
2022/11/17 08:52:36;;;;;;;8.75;6.43;;;7.50;99.90;;;;;;5091753;28;20389;-63
2022/11/17 08:55:04;;;;;;;8.70;6.63;;;7.50;99.90;;;;;;5090373;28;20036;-63
2022/11/17 08:57:30;;;;;;;9.00;6.60;;;7.50;99.90;;;;;;5088009;28;20130;-64
2022/11/17 08:59:56;;;;;;;9.43;6.88;;;7.50;99.90;;;;;;5059319;28;20043;-64
2022/11/17 09:02:22;;;;;;;8.13;6.05;;;7.50;99.90;;;;;;5062483;28;20041;-64
2022/11/17 09:05:09;;;;;;;8.75;6.35;;;7.50;99.90;;;;;;5069907;28;20493;-64
2022/11/17 09:07:35;;;;;;;7.88;5.88;;;7.50;99.90;;;;;;5089877;28;20028;-64
2022/11/17 09:10:03;;;;;;;10.43;6.80;;;7.50;99.90;;;;;;5089541;28;20028;-64
2022/11/17 09:12:29;;;;;;;9.30;6.50;;;7.50;99.90;;;;;;5090854;28;20559;-64
2022/11/17 09:14:54;;;;;;;10.13;6.70;;;7.50;99.90;;;;;;5093957;28;20075;-64
2022/11/17 09:17:20;;;;;;;11.13;6.75;;;7.60;99.90;;;;;;5089590;28;20077;-65
2022/11/17 09:19:45;;;;;;;9.05;6.75;;;7.50;99.90;;;;;;5075056;28;20516;-65
2022/11/17 09:22:11;;;;;;;8.05;5.97;;;7.60;99.90;;;;;;5091900;28;20108;-65
2022/11/17 09:24:37;;;;;;;7.97;5.90;;;7.50;99.90;;;;;;5089671;28;20036;-65
2022/11/17 09:27:02;;;;;;;7.38;6.03;;;7.60;99.90;;;;;;5075223;28;20050;-64
2022/11/17 09:29:29;;;;;;;7.82;5.97;;;7.60;99.90;;;;;;5093898;28;20032;-65
2022/11/17 09:31:55;;;;;;;7.57;5.78;;;7.60;99.90;;;;;;5092639;28;20493;-65
2022/11/17 09:34:20;;;;;;;9.27;6.28;;;7.60;99.90;;;;;;5093448;28;20043;-65
2022/11/17 09:36:47;;;;;;;7.13;4.95;;;7.60;99.90;;;;;;5092444;28;20028;-64
2022/11/17 09:39:16;;;;;;;7.20;5.65;;;7.60;99.90;;;;;;5091142;28;20036;-65
2022/11/17 09:41:48;;;;;;;7.20;5.45;;;7.60;99.90;;;;;;5092893;28;20073;-65
2022/11/17 09:44:39;;;;;;;8.80;5.25;;;7.60;99.90;;;;;;5093733;28;20093;-64
2022/11/17 09:47:33;;;;;;;6.43;4.40;;;7.60;99.90;;;;;;5091600;28;20036;-65
2022/11/17 09:50:33;;;;;;;8.70;5.57;;;7.60;99.90;;;;;;5090134;28;20036;-64
2022/11/17 09:53:17;;;;;;;7.03;5.22;;;7.60;99.90;;;;;;5089935;28;20114;-64
2022/11/17 09:55:46;;;;;;;7.55;4.82;;;7.60;99.90;;;;;;5071961;28;20051;-65
2022/11/17 09:58:33;;;;;;;10.25;5.47;;;7.60;99.90;;;;;;5070674;28;20048;-65
2022/11/17 10:01:00;;;;;;;7.88;5.55;;;7.70;99.90;;;;;;5086850;22;20563;-67
2022/11/17 10:03:31;;;;;;;6.82;5.40;;;7.70;99.90;;;;;;5067431;28;20044;-67
2022/11/17 10:05:58;;;;;;;7.97;5.80;;;7.70;99.90;;;;;;5062298;28;20082;-66
2022/11/17 10:08:40;;;;;;;7.57;5.70;;;7.70;99.90;;;;;;5070171;28;20056;-66
2022/11/17 10:11:30;;;;;;;6.32;5.13;;;7.70;99.90;;;;;;5072276;28;20038;-67
2022/11/17 10:14:14;;;;;;;6.72;5.20;;;7.70;99.90;;;;;;5070063;28;20517;-66
2022/11/17 10:16:51;;;;;;;9.27;5.65;;;7.70;99.90;;;;;;5066557;28;20070;-66
2022/11/17 10:19:18;;;;;;;8.15;5.82;;;7.80;99.90;;;;;;5067197;28;20044;-67
2022/11/17 10:21:48;;;;;;;8.25;5.90;;;7.70;99.90;;;;;;5072861;28;20036;-67
2022/11/17 10:24:38;;;;;;;6.93;5.25;;;7.80;99.90;;;;;;5070191;28;20033;-66
2022/11/17 10:27:16;;;;;;;8.50;6.10;;;7.80;99.90;;;;;;5070079;28;20139;-66
2022/11/17 10:30:03;;;;;;;8.20;5.80;;;7.80;99.90;;;;;;5071501;28;20037;-67
2022/11/17 10:32:33;;;;;;;7.28;5.88;;;7.90;99.90;;;;;;5070809;28;20081;-67
2022/11/17 10:35:17;;;;;;;8.57;6.05;;;7.90;99.90;;;;;;5069933;28;20115;-67
2022/11/17 10:37:51;;;;;;;8.57;5.72;;;7.90;99.90;;;;;;5068700;28;20475;-67
2022/11/17 10:40:22;;;;;;;7.18;5.03;;;7.90;99.90;;;;;;5066644;28;20040;-67
2022/11/17 10:43:16;;;;;;;8.05;6.10;;;8.00;99.90;;;;;;5072420;28;20034;-67
2022/11/17 10:45:51;;;;;;;8.82;5.80;;;8.00;99.90;;;;;;5069334;28;20040;-67
2022/11/17 10:48:23;;;;;;;7.63;5.07;;;8.00;99.90;;;;;;5072551;28;20087;-67
2022/11/17 10:50:57;;;;;;;6.43;5.13;;;8.00;99.90;;;;;;5053738;28;20041;-67
2022/11/17 10:53:33;;;;;;;6.70;4.90;;;8.00;99.90;;;;;;5070428;28;20028;-67
2022/11/17 10:56:20;;;;;;;4.50;4.10;;;8.00;99.90;;;;;;5047071;28;20042;-67
2022/11/17 10:59:06;;;;;;;5.60;4.25;;;8.00;99.90;;;;;;5052787;28;20482;-67
2022/11/17 11:01:35;;;;;;;6.88;4.63;;;8.00;99.90;;;;;;5070029;28;20041;-67
2022/11/17 11:04:02;;;;;;;6.07;4.70;;;8.00;99.90;;;;;;5054295;28;20123;-67
2022/11/17 11:06:30;;;;;;;6.75;5.00;;;8.10;99.90;;;;;;5068568;28;20044;-68
2022/11/17 11:09:01;;;;;;;8.43;4.93;;;8.10;99.90;;;;;;5071815;28;20028;-67
2022/11/17 11:11:45;;;;;;;6.30;5.22;;;8.10;99.90;;;;;;5071891;28;20565;-66
2022/11/17 11:14:23;;;;;;;7.60;4.72;;;8.10;99.90;;;;;;5071518;28;20043;-67
2022/11/17 11:16:49;;;;;;;6.15;4.93;;;8.00;99.90;;;;;;5071551;28;20036;-67
2022/11/17 11:19:17;;;;;;;7.18;4.90;;;8.00;99.90;;;;;;5071510;28;20068;-67
2022/11/17 11:21:51;;;;;;;7.47;4.90;;;8.10;99.90;;;;;;5069104;28;20032;-67
2022/11/17 11:24:21;;;;;;;8.70;5.38;;;8.10;99.90;;;;;;5071451;28;20115;-67
2022/11/17 11:27:27;;;;;;;6.20;5.00;;;8.10;99.90;;;;;;5068980;28;20173;-67
2022/11/17 11:30:03;;;;;;;6.60;4.68;;;8.10;99.90;;;;;;5070354;28;20052;-67
2022/11/17 11:32:44;;;;;;;9.00;5.32;;;8.20;99.90;;;;;;5071542;28;20037;-67
2022/11/17 11:35:28;;;;;;;5.68;4.68;;;8.20;99.90;;;;;;5070615;28;20070;-67
2022/11/17 11:38:06;;;;;;;6.70;4.95;;;8.20;99.90;;;;;;5070309;28;20082;-67
2022/11/17 11:40:37;;;;;;;5.70;4.78;;;8.30;99.90;;;;;;5069781;28;20072;-67
2022/11/17 11:43:27;;;;;;;8.00;5.32;;;8.30;99.90;;;;;;5070895;28;20044;-67
2022/11/17 11:46:17;;;;;;;7.18;5.10;;;8.40;99.90;;;;;;5062554;28;20490;-67
2022/11/17 11:48:44;;;;;;;8.52;5.68;;;8.50;99.90;;;;;;5062775;28;20068;-67
2022/11/17 11:51:13;;;;;;;7.15;5.30;;;8.60;99.90;;;;;;5069385;28;20041;-66
2022/11/17 11:53:46;;;;;;;8.30;6.15;;;8.60;99.90;;;;;;5053444;28;20046;-66
2022/11/17 11:56:37;;;;;;;9.13;6.00;;;8.70;99.90;;;;;;5070490;28;20765;-66
2022/11/17 11:59:16;;;;;;;8.80;5.68;;;8.70;99.90;;;;;;5057739;28;20413;-67
2022/11/17 12:01:47;;;;;;;6.60;5.40;;;8.70;99.90;;;;;;5062963;28;20119;-66
2022/11/17 12:04:22;;;;;;;10.20;5.00;;;8.80;99.90;;;;;;5071314;28;20032;-67
2022/11/17 12:06:52;;;;;;;9.55;5.60;;;8.80;99.90;;;;;;5069493;28;20505;-68
2022/11/17 12:09:36;;;;;;;7.55;5.28;;;8.80;99.90;;;;;;5068289;28;20040;-67
2022/11/17 12:12:07;;;;;;;9.50;5.28;;;8.80;99.90;;;;;;5070124;28;20498;-67
2022/11/17 12:14:35;;;;;;;10.65;5.70;;;8.80;99.90;;;;;;5071351;28;20036;-67
2022/11/17 12:17:06;;;;;;;9.07;5.78;;;8.90;99.90;;;;;;5070654;28;20550;-67
2022/11/17 12:19:58;;;;;;;9.05;5.72;;;9.00;99.90;;;;;;5068432;28;20052;-66
2022/11/17 12:22:31;;;;;;;10.38;5.68;;;9.00;99.90;;;;;;5064020;28;20059;-66
2022/11/17 12:24:57;;;;;;;7.65;5.57;;;9.00;99.90;;;;;;5068491;28;20036;-67
2022/11/17 12:27:33;;;;;;;9.30;6.53;;;9.10;99.90;;;;;;5070957;28;20414;-67
2022/11/17 12:30:00;;;;;;;9.00;6.05;;;9.20;99.90;;;;;;5069804;28;20401;-66
2022/11/17 12:32:43;;;;;;;11.00;5.93;;;9.20;99.90;;;;;;5070669;28;20044;-67
2022/11/17 12:35:23;;;;;;;8.18;5.47;;;9.20;99.90;;;;;;5054346;28;20548;-67
2022/11/17 12:38:08;;;;;;;8.40;5.18;;;9.30;99.90;;;;;;5068639;28;20079;-66
2022/11/17 12:40:37;;;;;;;6.57;5.15;;;9.40;99.90;;;;;;5069351;28;20498;-67
2022/11/17 12:43:15;;;;;;;9.02;4.43;;;9.40;99.90;;;;;;5071858;28;20459;-67
2022/11/17 12:45:58;;;;;;;6.82;3.58;;;9.50;99.90;;;;;;5072735;28;20047;-67
2022/11/17 12:48:30;;;;;;;5.32;3.40;;;9.60;99.90;;;;;;5066086;28;20083;-67
2022/11/17 12:51:09;;;;;;;8.73;4.53;;;9.60;99.90;;;;;;5068197;28;20043;-67
2022/11/17 12:53:41;;;;;;;6.05;4.43;;;9.70;99.90;;;;;;5070838;28;20529;-67
2022/11/17 12:56:12;;;;;;;9.55;4.32;;;9.80;99.90;;;;;;5073699;28;20079;-67
2022/11/17 12:58:40;;;;;;;8.93;4.90;;;9.80;99.90;;;;;;5074007;28;20123;-67
2022/11/17 13:01:32;;;;;;;10.88;5.18;;;9.80;99.90;;;;;;5072447;28;20040;-67
2022/11/17 13:04:14;;;;;;;9.70;6.05;;;9.90;99.90;;;;;;5074374;28;20043;-67
2022/11/17 13:07:03;;;;;;;12.80;7.53;;;9.90;99.90;;;;;;5073001;28;20071;-67
2022/11/17 13:09:32;;;;;;;10.20;6.18;;;9.90;99.90;;;;;;5060909;28;20044;-67
2022/11/17 13:12:06;;;;;;;11.45;7.20;;;9.80;99.90;;;;;;5070207;28;20051;-67
2022/11/17 13:14:34;;;;;;;12.25;6.93;;;9.90;99.90;;;;;;5064658;28;20048;-67
2022/11/17 13:17:01;;;;;;;10.32;7.07;;;9.80;99.90;;;;;;5065925;28;20450;-67
2022/11/17 13:19:39;;;;;;;10.63;7.18;;;9.90;99.90;;;;;;5071278;28;20486;-67
2022/11/17 13:22:10;;;;;;;10.63;7.47;;;9.90;99.90;;;;;;5072537;28;20060;-66
2022/11/17 13:24:38;;;;;;;19.63;10.82;;;9.90;99.90;;;;;;5064127;28;20037;-67
2022/11/17 13:27:15;;;;;;;9.20;7.13;;;9.80;99.90;;;;;;5066514;28;20040;-66
2022/11/17 13:29:41;;;;;;;10.13;6.28;;;9.80;99.90;;;;;;5070130;28;20045;-67
2022/11/17 13:32:15;;;;;;;9.63;6.82;;;9.80;99.90;;;;;;5064898;28;20063;-67
2022/11/17 13:34:55;;;;;;;11.43;7.38;;;9.80;99.90;;;;;;5065441;28;20044;-67
2022/11/17 13:37:23;;;;;;;10.93;7.15;;;9.80;99.90;;;;;;5068356;28;20032;-67